Megargel, AL (36457)

2:05 PM CDT on July 25, 2016 (GMT -0500)
KALFRISC2 | | Change Station

Elev 70 ft 31.58 °N, 87.49 °W | Updated 4 minutes ago

Partly Cloudy
Partly Cloudy
93.1 °F
Feels Like 107 °F
N
0.0
Wind Variable Wind from SE
Gusts 0.0 mph

Today
High -- | Low -- °F
--% Chance of Precip.
Yesterday
High -- | Low -- °F
Precip. -- in
Pressure 29.99 in
Visibility 10.0 miles
Clouds Few 4800 ft
Few 6000 ft
Heat Index 107 °F
Dew Point 77 °F
Humidity 59%
Rainfall 0.00 in
Snow Depth Not available.
6:02 AM 7:50 PM
Waning Gibbous, 63% visible
METAR KGZH 251853Z AUTO 09008KT 10SM FEW048 FEW060 33/22 A3000 RMK AO2 SLP154 T03330222 TSNO
Pressure 29.99 in
Visibility 10.0 miles
Clouds Few 4800 ft
Few 6000 ft
Heat Index 107 °F
Dew Point 77 °F
Humidity 59%
Rainfall 0.00 in
Snow Depth Not available.
6:02 AM 7:50 PM
Waning Gibbous, 63% visible
METAR KGZH 251853Z AUTO 09008KT 10SM FEW048 FEW060 33/22 A3000 RMK AO2 SLP154 T03330222 TSNO
Record highs are possible for parts of the Northeast Monday and Tuesday, as parts of the central U.S. take a little breather from the worst of summer's dog day heat.

Expansive high pressure in the upper atmosphere will focus on parts of the East and West this week, sending heat indices well into the triple digits from the Mid-Atlantic states into the South.

10-Day Weather Forecast

Almanac

Astronomy

Jul. 25, 2016 Rise Set
Actual Time
Civil Twilight
Nautical Twilight
Astronomical Twilight
Moon
Length of Visible Light
Length of Day
Tomorrow will be .
, % of the Moon is Illuminated

Today's Extremes

State Highs State Lows

Community

WunderPhotos

Upload Photos

1,927,373 photos uploaded!

WunderBlog® & News

Nearby

Air Quality

  Air Quality AQ Index Pollutant
Not available.

Snow Depth

Station Depth Elevation

Earthquake Activity

City Distance Mag. Time & Date
Minimum magnitude displayed is 2.5.

Coastal Water Temperatures

Place Temperature

Stations

Nearby Weather Stations

Station Location Temp. Windchill Dew Point Humidity Wind Precip. Elev Updated Type
                   

Watches & Warnings

There are currently no watches in effect.